Terminal Aerodrome Forecast
Issued by NWS Cleveland, OH

Home | Current Version | Previous Version | Graphics & Text | Print | Product List | Glossary On
Versions: 1 2 3 4 5 6 7 8 9 10 11 12 13 14 15 16 17 18 19
844
FTUS41 KCLE 081136
TAFERI
TAF
KERI 081136Z 0812/0912 16012KT P6SM SCT050 OVC100
     FM082000 19008KT 6SM -RA SCT015 OVC025
     FM090000 22006KT 4SM -RA BR OVC015
     FM090300 24005KT 4SM -SN BR SCT006 OVC012=

USA.gov is the U.S. government's official web portal to all federal, state and local government web resources and services.